Time;durP1;ratioP1;P1;durP2;ratioP2;P2;SDS_P1;SDS_P2;PMS_P1;PMS_P2;Temp;Humidity;BMP_temperature;BMP_pressure;BME280_temperature;BME280_humidity;BME280_pressure;Samples;Min_cycle;Max_cycle;Signal;HPM_P1;HPM_P2
2023/09/28 00:02:54;;;;;;;0.13;0.13;;;18.40;83.90;;;;;;5030527;28;20132;-67
2023/09/28 00:05:20;;;;;;;8.70;1.85;;;18.30;83.90;;;;;;5030752;28;20049;-67
2023/09/28 00:07:47;;;;;;;0.00;0.00;;;18.30;83.90;;;;;;5030371;28;20099;-68
2023/09/28 00:10:15;;;;;;;0.08;0.08;;;18.30;84.10;;;;;;5029862;28;20033;-68
2023/09/28 00:12:45;;;;;;;0.00;0.00;;;18.30;84.10;;;;;;5030680;28;20064;-68
2023/09/28 00:15:12;;;;;;;0.10;0.10;;;18.20;84.10;;;;;;5030623;28;20524;-68
2023/09/28 00:17:38;;;;;;;0.00;0.00;;;18.30;84.00;;;;;;5031090;28;20136;-68
2023/09/28 00:20:17;;;;;;;0.00;0.00;;;18.30;84.00;;;;;;5029345;28;20048;-67
2023/09/28 00:23:01;;;;;;;0.00;0.00;;;18.30;84.20;;;;;;5030020;28;20041;-68
2023/09/28 00:25:26;;;;;;;0.25;0.25;;;18.20;84.10;;;;;;5026430;28;20116;-67
2023/09/28 00:27:53;;;;;;;0.00;0.00;;;18.20;84.30;;;;;;5029980;28;20124;-68
2023/09/28 00:30:22;;;;;;;0.05;0.05;;;18.20;84.20;;;;;;5029645;28;20037;-67
2023/09/28 00:32:53;;;;;;;0.00;0.00;;;18.20;84.20;;;;;;5029588;28;20117;-67
2023/09/28 00:35:19;;;;;;;;;;;18.10;84.10;;;;;;5030543;28;20846;-68
2023/09/28 00:37:46;;;;;;;0.13;0.13;;;18.20;84.10;;;;;;5029209;28;19968;-68
2023/09/28 00:40:20;;;;;;;0.25;0.25;;;18.10;84.20;;;;;;5026993;28;20076;-68
2023/09/28 00:42:50;;;;;;;0.00;0.00;;;18.10;84.20;;;;;;5030037;28;20046;-68
2023/09/28 00:45:17;;;;;;;0.00;0.00;;;18.10;84.30;;;;;;5027339;28;20041;-67
2023/09/28 00:47:43;;;;;;;0.00;0.00;;;18.10;84.10;;;;;;5030199;28;20054;-68
2023/09/28 00:50:10;;;;;;;1.05;0.73;;;18.10;84.40;;;;;;5030002;28;20592;-68
2023/09/28 00:52:41;;;;;;;0.73;0.73;;;18.10;84.30;;;;;;5029891;28;20087;-68
2023/09/28 00:55:09;;;;;;;0.28;0.28;;;18.10;84.50;;;;;;5030364;28;20050;-68
2023/09/28 00:57:39;;;;;;;0.00;0.00;;;18.00;84.30;;;;;;5015185;28;20100;-67
2023/09/28 01:00:26;;;;;;;0.00;0.00;;;18.00;84.30;;;;;;5009872;28;20048;-69
2023/09/28 01:02:55;;;;;;;0.00;0.00;;;18.00;84.40;;;;;;5010860;28;20088;-68
2023/09/28 01:05:33;;;;;;;0.00;0.00;;;18.00;84.60;;;;;;5010137;28;20069;-67
2023/09/28 01:08:14;;;;;;;0.00;0.00;;;18.00;84.60;;;;;;5010049;28;20120;-68
2023/09/28 01:10:41;;;;;;;0.00;0.00;;;18.00;84.70;;;;;;5012481;28;20041;-68
2023/09/28 01:13:11;;;;;;;0.00;0.00;;;17.90;84.60;;;;;;5013978;28;20208;-68
2023/09/28 01:15:42;;;;;;;0.30;0.30;;;17.90;84.50;;;;;;5016153;28;20046;-68
2023/09/28 01:18:12;;;;;;;0.00;0.00;;;17.90;84.50;;;;;;5011390;28;20092;-68
2023/09/28 01:20:44;;;;;;;0.00;0.00;;;17.80;84.60;;;;;;5009206;28;20034;-67
2023/09/28 01:23:10;;;;;;;0.00;0.00;;;17.80;84.60;;;;;;5016892;28;20072;-68
2023/09/28 01:25:37;;;;;;;0.00;0.00;;;17.80;84.60;;;;;;5012052;28;20153;-68
2023/09/28 01:28:05;;;;;;;0.35;0.35;;;17.70;84.80;;;;;;5027630;28;20049;-68
2023/09/28 01:30:32;;;;;;;0.20;0.20;;;17.70;84.80;;;;;;5017411;28;20948;-68
2023/09/28 01:32:57;;;;;;;0.00;0.00;;;17.70;84.70;;;;;;5027913;28;20033;-67
2023/09/28 01:35:23;;;;;;;0.00;0.00;;;17.60;84.80;;;;;;5019896;28;20121;-67
2023/09/28 01:37:52;;;;;;;0.00;0.00;;;17.60;85.10;;;;;;5008939;28;20046;-68
2023/09/28 01:40:18;;;;;;;0.00;0.00;;;17.60;85.40;;;;;;5009089;28;20046;-68
2023/09/28 01:42:44;;;;;;;0.00;0.00;;;17.50;85.40;;;;;;5017212;28;20041;-68
2023/09/28 01:45:11;;;;;;;0.22;0.22;;;17.50;85.50;;;;;;5016196;28;20555;-68
2023/09/28 01:47:37;;;;;;;0.00;0.00;;;17.60;85.50;;;;;;5016540;28;20065;-68
2023/09/28 01:50:03;;;;;;;0.00;0.00;;;17.50;85.70;;;;;;5008815;28;20057;-68
2023/09/28 01:52:29;;;;;;;0.03;0.03;;;17.50;85.60;;;;;;5008812;28;20061;-68
2023/09/28 01:54:55;;;;;;;0.03;0.03;;;17.50;85.80;;;;;;5010169;28;20077;-68
2023/09/28 01:57:21;;;;;;;0.00;0.00;;;17.40;85.80;;;;;;5008833;28;20042;-68
2023/09/28 01:59:47;;;;;;;0.00;0.00;;;17.50;85.70;;;;;;5012603;28;20494;-68
2023/09/28 02:02:15;;;;;;;0.00;0.00;;;17.50;85.70;;;;;;5015523;28;20103;-68
2023/09/28 02:04:41;;;;;;;0.55;0.55;;;17.40;85.70;;;;;;5016128;28;20123;-68
2023/09/28 02:07:06;;;;;;;0.00;0.00;;;17.40;85.80;;;;;;5008853;28;20588;-68
2023/09/28 02:09:32;;;;;;;0.00;0.00;;;17.40;86.00;;;;;;5009612;28;20521;-68
2023/09/28 02:12:00;;;;;;;0.00;0.00;;;17.40;85.80;;;;;;5019582;28;20125;-68
2023/09/28 02:14:25;;;;;;;0.10;0.10;;;17.40;86.20;;;;;;5017601;28;20052;-68
2023/09/28 02:16:51;;;;;;;0.00;0.00;;;17.50;86.20;;;;;;5012455;28;20034;-67
2023/09/28 02:19:17;;;;;;;0.00;0.00;;;17.50;86.50;;;;;;5012693;28;20125;-68
2023/09/28 02:21:43;;;;;;;0.00;0.00;;;17.50;86.90;;;;;;5027758;28;20038;-69
2023/09/28 02:24:09;;;;;;;0.10;0.10;;;17.60;86.90;;;;;;5023682;28;20765;-68
2023/09/28 02:26:35;;;;;;;1.65;0.20;;;17.60;87.10;;;;;;5016525;28;20049;-69
2023/09/28 02:29:01;;;;;;;0.52;0.52;;;17.70;87.40;;;;;;5028239;28;20033;-68
2023/09/28 02:31:28;;;;;;;0.10;0.10;;;17.80;86.70;;;;;;5030928;28;20041;-67
2023/09/28 02:33:54;;;;;;;0.00;0.00;;;17.80;86.60;;;;;;5029405;28;20052;-68
2023/09/28 02:36:20;;;;;;;0.00;0.00;;;17.80;86.80;;;;;;5027184;28;20406;-68
2023/09/28 02:38:47;;;;;;;0.10;0.10;;;17.80;87.10;;;;;;5012372;28;20848;-68
2023/09/28 02:41:20;;;;;;;0.00;0.00;;;17.80;86.70;;;;;;5012529;28;20037;-68
2023/09/28 02:43:45;;;;;;;0.10;0.10;;;17.80;86.80;;;;;;5015937;28;20052;-67
2023/09/28 02:46:12;;;;;;;6.35;1.45;;;17.80;86.80;;;;;;5022080;28;20033;-68
2023/09/28 02:48:38;;;;;;;0.00;0.00;;;17.80;86.90;;;;;;5027430;28;20128;-68
2023/09/28 02:51:04;;;;;;;0.00;0.00;;;17.80;87.10;;;;;;5030512;28;20204;-68
2023/09/28 02:53:30;;;;;;;0.38;0.38;;;17.90;86.70;;;;;;5016660;28;20111;-68
2023/09/28 02:55:56;;;;;;;0.00;0.00;;;17.80;87.00;;;;;;5032973;28;20098;-68
2023/09/28 02:58:24;;;;;;;0.05;0.05;;;17.80;87.30;;;;;;5032506;28;20827;-68
2023/09/28 03:00:52;;;;;;;0.10;0.10;;;17.90;87.40;;;;;;5032070;28;20052;-68
2023/09/28 03:03:18;;;;;;;0.13;0.13;;;17.80;87.30;;;;;;5032708;28;20460;-68
2023/09/28 03:05:44;;;;;;;0.00;0.00;;;17.90;87.30;;;;;;5032006;28;21221;-67
2023/09/28 03:08:14;;;;;;;1.05;1.05;;;17.80;87.00;;;;;;5032429;28;20160;-68
2023/09/28 03:10:44;;;;;;;0.00;0.00;;;17.90;87.20;;;;;;5031799;28;20073;-68
2023/09/28 03:13:11;;;;;;;0.00;0.00;;;17.80;87.20;;;;;;5031975;28;20528;-68
2023/09/28 03:15:40;;;;;;;0.75;0.70;;;17.80;87.40;;;;;;5031477;28;20045;-68
2023/09/28 03:18:06;;;;;;;0.08;0.08;;;17.80;87.60;;;;;;5031916;28;20049;-68
2023/09/28 03:20:32;;;;;;;0.00;0.00;;;17.80;87.60;;;;;;5032082;28;20046;-68
2023/09/28 03:22:58;;;;;;;0.38;0.28;;;17.80;87.60;;;;;;5030690;28;20402;-68
2023/09/28 03:25:24;;;;;;;0.00;0.00;;;17.80;87.70;;;;;;5030923;28;20513;-68
2023/09/28 03:27:53;;;;;;;0.00;0.00;;;17.80;87.70;;;;;;5031865;28;20060;-68
2023/09/28 03:30:23;;;;;;;0.10;0.10;;;17.80;87.80;;;;;;5031660;28;20676;-68
2023/09/28 03:32:50;;;;;;;0.00;0.00;;;17.80;87.80;;;;;;5031486;28;20589;-67
2023/09/28 03:35:17;;;;;;;0.08;0.08;;;17.80;87.60;;;;;;5031458;28;20041;-68
2023/09/28 03:37:43;;;;;;;0.00;0.00;;;17.80;87.60;;;;;;5031151;28;20046;-68
2023/09/28 03:40:11;;;;;;;0.20;0.20;;;17.80;87.50;;;;;;5031119;28;20041;-68
2023/09/28 03:42:44;;;;;;;0.00;0.00;;;17.80;87.50;;;;;;5031844;28;20044;-68
2023/09/28 03:45:14;;;;;;;0.28;0.20;;;17.80;87.30;;;;;;5031207;28;20045;-68
2023/09/28 03:47:40;;;;;;;0.10;0.10;;;17.80;87.70;;;;;;5022776;28;20053;-68
2023/09/28 03:50:12;;;;;;;0.00;0.00;;;17.80;87.70;;;;;;5025709;28;20123;-69
2023/09/28 03:52:38;;;;;;;0.08;0.08;;;17.80;88.00;;;;;;5011535;28;20125;-67
2023/09/28 03:55:18;;;;;;;0.00;0.00;;;17.80;87.70;;;;;;5018494;28;20041;-67
2023/09/28 03:57:44;;;;;;;0.00;0.00;;;17.80;87.70;;;;;;5030496;28;20081;-68
2023/09/28 04:00:12;;;;;;;0.00;0.00;;;17.80;87.80;;;;;;5012088;28;20053;-68
2023/09/28 04:02:44;;;;;;;0.10;0.10;;;17.80;88.00;;;;;;5030801;28;20042;-68
2023/09/28 04:05:09;;;;;;;;;;;17.70;87.80;;;;;;5031349;28;20490;-68
2023/09/28 04:07:36;;;;;;;0.10;0.10;;;17.80;87.30;;;;;;5030972;28;19925;-67
2023/09/28 04:10:01;;;;;;;0.40;0.32;;;17.80;87.20;;;;;;5030495;28;20136;-68
2023/09/28 04:12:30;;;;;;;0.15;0.15;;;17.80;86.80;;;;;;5030812;28;20140;-68
2023/09/28 04:14:56;;;;;;;0.30;0.30;;;17.80;86.90;;;;;;5030644;28;20045;-68
2023/09/28 04:17:22;;;;;;;0.10;0.10;;;17.70;87.00;;;;;;5029236;28;20084;-68
2023/09/28 04:19:48;;;;;;;0.00;0.00;;;17.70;87.40;;;;;;5031019;28;20095;-68
2023/09/28 04:22:14;;;;;;;0.00;0.00;;;17.70;87.50;;;;;;5030359;28;20485;-68
2023/09/28 04:24:40;;;;;;;0.10;0.10;;;17.60;87.50;;;;;;5030854;28;20060;-68
2023/09/28 04:27:08;;;;;;;0.63;0.43;;;17.60;88.10;;;;;;5030581;28;20045;-68
2023/09/28 04:29:34;;;;;;;0.08;0.08;;;17.60;87.80;;;;;;5030321;28;20057;-67
2023/09/28 04:32:00;;;;;;;0.10;0.10;;;17.60;88.20;;;;;;5029841;28;20154;-67
2023/09/28 04:34:26;;;;;;;0.20;0.20;;;17.50;88.00;;;;;;5028446;28;20149;-68
2023/09/28 04:36:51;;;;;;;0.00;0.00;;;17.50;87.50;;;;;;5027242;28;20037;-68
2023/09/28 04:39:17;;;;;;;0.08;0.08;;;17.40;87.10;;;;;;5029400;28;20046;-68
2023/09/28 04:41:44;;;;;;;0.00;0.00;;;17.40;87.00;;;;;;5026701;28;20080;-68
2023/09/28 04:44:10;;;;;;;0.00;0.00;;;17.40;86.80;;;;;;5026174;28;20053;-67
2023/09/28 04:46:36;;;;;;;0.00;0.00;;;17.30;86.70;;;;;;5010425;28;20045;-68
2023/09/28 04:49:02;;;;;;;0.15;0.15;;;17.40;86.30;;;;;;5021689;28;20053;-67
2023/09/28 04:51:31;;;;;;;0.00;0.00;;;17.30;85.90;;;;;;5029752;28;20054;-68
2023/09/28 04:53:57;;;;;;;0.30;0.30;;;17.30;85.40;;;;;;5029489;28;20049;-68
2023/09/28 04:56:24;;;;;;;0.20;0.20;;;17.20;85.20;;;;;;5026100;28;20034;-68
2023/09/28 04:58:49;;;;;;;0.52;0.40;;;17.20;84.90;;;;;;5009772;28;20132;-67
2023/09/28 05:01:15;;;;;;;0.30;0.30;;;17.10;84.80;;;;;;5017481;28;20113;-67
2023/09/28 05:03:41;;;;;;;0.00;0.00;;;17.10;84.30;;;;;;5029757;28;20486;-68
2023/09/28 05:06:06;;;;;;;0.80;0.70;;;17.10;84.40;;;;;;5029798;28;20076;-68
2023/09/28 05:08:32;;;;;;;0.00;0.00;;;17.00;84.70;;;;;;5027740;28;20041;-68
2023/09/28 05:10:58;;;;;;;0.00;0.00;;;17.00;84.80;;;;;;5029410;28;20052;-68
2023/09/28 05:13:28;;;;;;;0.00;0.00;;;17.00;85.00;;;;;;5028319;28;20042;-68
2023/09/28 05:15:54;;;;;;;0.22;0.22;;;17.00;85.00;;;;;;5020211;28;20099;-68
2023/09/28 05:18:19;;;;;;;0.00;0.00;;;17.00;84.90;;;;;;5027721;28;20084;-67
2023/09/28 05:20:45;;;;;;;0.63;0.57;;;17.00;85.10;;;;;;5029103;28;20085;-67
2023/09/28 05:23:11;;;;;;;2.22;1.40;;;16.90;85.20;;;;;;5029175;28;20721;-67
2023/09/28 05:25:37;;;;;;;0.55;0.55;;;16.90;85.30;;;;;;5028516;28;20504;-67
2023/09/28 05:28:04;;;;;;;0.00;0.00;;;16.80;85.40;;;;;;5028812;28;20049;-67
2023/09/28 05:30:30;;;;;;;0.00;0.00;;;16.80;85.80;;;;;;5028052;28;20041;-68
2023/09/28 05:32:56;;;;;;;0.20;0.20;;;16.80;85.90;;;;;;5029267;28;20045;-67
2023/09/28 05:35:22;;;;;;;0.00;0.00;;;16.80;86.50;;;;;;5028920;28;20107;-67
2023/09/28 05:37:49;;;;;;;0.00;0.00;;;16.70;87.00;;;;;;5031429;28;20037;-68
2023/09/28 05:40:14;;;;;;;0.00;0.00;;;16.70;87.10;;;;;;5021900;28;20713;-68
2023/09/28 05:42:41;;;;;;;0.00;0.00;;;16.70;87.10;;;;;;5022712;28;20061;-67
2023/09/28 05:45:07;;;;;;;0.13;0.13;;;16.60;87.10;;;;;;5017611;28;20457;-67
2023/09/28 05:47:34;;;;;;;0.00;0.00;;;16.70;86.80;;;;;;5022312;28;20119;-68
2023/09/28 05:50:01;;;;;;;0.00;0.00;;;16.70;86.90;;;;;;5037517;28;20049;-69
2023/09/28 05:52:28;;;;;;;0.00;0.00;;;16.60;86.90;;;;;;5021297;28;20059;-69
2023/09/28 05:54:53;;;;;;;0.00;0.00;;;16.60;86.80;;;;;;5019089;28;20808;-68
2023/09/28 05:57:22;;;;;;;0.20;0.20;;;16.60;86.80;;;;;;5011310;28;20050;-68
2023/09/28 05:59:51;;;;;;;2.45;1.38;;;16.60;86.70;;;;;;5023034;28;20049;-68
2023/09/28 06:02:18;;;;;;;0.00;0.00;;;16.60;86.70;;;;;;5026480;28;20057;-69
2023/09/28 06:04:44;;;;;;;0.43;0.43;;;16.60;87.00;;;;;;5027205;28;20172;-70
2023/09/28 06:07:10;;;;;;;0.00;0.00;;;16.60;87.00;;;;;;5024990;28;20132;-69
2023/09/28 06:09:36;;;;;;;0.20;0.20;;;16.50;87.10;;;;;;5028203;28;20045;-68
2023/09/28 06:12:02;;;;;;;0.08;0.08;;;16.60;87.10;;;;;;5028018;28;20046;-68
2023/09/28 06:14:28;;;;;;;0.00;0.00;;;16.60;87.00;;;;;;5018888;28;20046;-68
2023/09/28 06:16:53;;;;;;;0.00;0.00;;;16.60;86.90;;;;;;5008986;28;20050;-68
2023/09/28 06:19:20;;;;;;;0.00;0.00;;;16.60;86.80;;;;;;5009427;28;20042;-68
2023/09/28 06:21:45;;;;;;;0.00;0.00;;;16.60;86.70;;;;;;5009328;28;20499;-68
2023/09/28 06:24:11;;;;;;;0.00;0.00;;;16.70;86.60;;;;;;5007736;28;20129;-68
2023/09/28 06:26:37;;;;;;;0.00;0.00;;;16.80;86.60;;;;;;5008993;28;20058;-68
2023/09/28 06:29:04;;;;;;;0.00;0.00;;;16.80;86.50;;;;;;5028457;28;20656;-70
2023/09/28 06:31:30;;;;;;;0.00;0.00;;;16.80;86.30;;;;;;5028367;28;20131;-70
2023/09/28 06:33:56;;;;;;;0.00;0.00;;;16.90;86.20;;;;;;5026715;28;20172;-70
2023/09/28 06:36:24;;;;;;;0.00;0.00;;;16.90;86.00;;;;;;5028742;28;20048;-70
2023/09/28 06:38:50;;;;;;;0.00;0.00;;;17.00;86.00;;;;;;5008910;28;20124;-71
2023/09/28 06:41:16;;;;;;;0.00;0.00;;;16.90;85.90;;;;;;5029231;28;20176;-71
2023/09/28 06:43:41;;;;;;;0.10;0.10;;;17.00;85.70;;;;;;5023596;28;20042;-70
2023/09/28 06:46:08;;;;;;;1.45;1.08;;;17.00;85.60;;;;;;5009816;28;20465;-71
2023/09/28 06:48:35;;;;;;;0.63;0.57;;;17.00;85.50;;;;;;5042695;28;20130;-71
2023/09/28 06:51:01;;;;;;;0.03;0.03;;;17.10;85.50;;;;;;5023218;28;20068;-70
2023/09/28 06:53:27;;;;;;;0.00;0.00;;;17.10;85.40;;;;;;5027868;28;20041;-70
2023/09/28 06:55:54;;;;;;;0.00;0.00;;;17.10;85.30;;;;;;5016596;28;20438;-73
2023/09/28 06:58:20;;;;;;;0.00;0.00;;;17.10;85.30;;;;;;5023828;28;20180;-71
2023/09/28 07:00:46;;;;;;;0.00;0.00;;;17.20;85.20;;;;;;5023638;28;20057;-71
2023/09/28 07:03:13;;;;;;;0.65;0.65;;;17.20;85.20;;;;;;5028963;28;20580;-71
2023/09/28 07:05:38;;;;;;;0.10;0.10;;;17.20;85.10;;;;;;5031432;28;20064;-71
2023/09/28 07:08:05;;;;;;;0.00;0.00;;;17.30;85.10;;;;;;5033201;28;20038;-70
2023/09/28 07:10:32;;;;;;;0.00;0.00;;;17.30;85.00;;;;;;5029803;28;20045;-71
2023/09/28 07:13:00;;;;;;;0.00;0.00;;;17.30;84.80;;;;;;5028757;28;20058;-71
2023/09/28 07:15:28;;;;;;;0.75;0.75;;;17.30;84.70;;;;;;5046817;28;20494;-70
2023/09/28 07:17:55;;;;;;;0.00;0.00;;;17.40;84.80;;;;;;5049027;28;20044;-70
2023/09/28 07:20:21;;;;;;;0.90;0.80;;;17.50;84.30;;;;;;5047270;28;20048;-71
2023/09/28 07:22:46;;;;;;;0.00;0.00;;;17.50;84.10;;;;;;5032698;28;20544;-71
2023/09/28 07:25:12;;;;;;;21.25;2.08;;;17.50;84.00;;;;;;5026643;28;20072;-71
2023/09/28 07:27:38;;;;;;;0.00;0.00;;;17.60;84.00;;;;;;5032232;28;20053;-71
2023/09/28 07:30:08;;;;;;;0.00;0.00;;;17.60;83.60;;;;;;5028298;28;20128;-70
2023/09/28 07:32:34;;;;;;;0.20;0.20;;;17.60;83.60;;;;;;5020924;28;20095;-66
2023/09/28 07:35:00;;;;;;;0.05;0.05;;;17.60;83.00;;;;;;5023142;28;20081;-70
2023/09/28 07:37:27;;;;;;;0.00;0.00;;;17.70;82.50;;;;;;5020861;28;20465;-72
2023/09/28 07:39:53;;;;;;;0.00;0.00;;;17.70;82.40;;;;;;5023434;28;20060;-71
2023/09/28 07:42:19;;;;;;;0.20;0.20;;;17.80;82.40;;;;;;5023712;28;20107;-72
2023/09/28 07:44:47;;;;;;;0.00;0.00;;;17.80;82.20;;;;;;5027614;28;20049;-71
2023/09/28 07:47:13;;;;;;;0.00;0.00;;;17.90;82.30;;;;;;5021069;28;20048;-71
2023/09/28 07:49:40;;;;;;;0.00;0.00;;;17.90;81.80;;;;;;5032261;28;20465;-71
2023/09/28 07:52:08;;;;;;;0.10;0.10;;;17.90;82.00;;;;;;5018439;28;20079;-71
2023/09/28 07:54:35;;;;;;;0.00;0.00;;;18.00;81.80;;;;;;5032237;28;20041;-72
2023/09/28 07:57:04;;;;;;;0.10;0.10;;;18.00;81.90;;;;;;5021760;28;20049;-71
2023/09/28 07:59:33;;;;;;;0.00;0.00;;;18.00;81.90;;;;;;5031969;28;20053;-70
2023/09/28 08:01:59;;;;;;;0.40;0.40;;;18.00;81.90;;;;;;5019761;28;20091;-72
2023/09/28 08:04:25;;;;;;;0.00;0.00;;;18.10;81.70;;;;;;5032673;28;20053;-70
2023/09/28 08:06:51;;;;;;;0.10;0.10;;;18.10;81.90;;;;;;5016396;28;20045;-70
2023/09/28 08:09:19;;;;;;;1.65;0.98;;;18.20;81.20;;;;;;5031844;28;20037;-71
2023/09/28 08:11:45;;;;;;;1.02;0.70;;;18.20;80.30;;;;;;5023602;28;20045;-70
2023/09/28 08:14:15;;;;;;;0.28;0.28;;;18.30;80.30;;;;;;5029623;28;20050;-70
2023/09/28 08:16:42;;;;;;;0.13;0.13;;;18.30;80.10;;;;;;5041543;28;20038;-70
2023/09/28 08:19:08;;;;;;;1.75;1.55;;;18.30;79.60;;;;;;5029138;28;20053;-70
2023/09/28 08:21:37;;;;;;;0.00;0.00;;;18.30;79.40;;;;;;5021241;28;20893;-70
2023/09/28 08:24:03;;;;;;;0.00;0.00;;;18.40;79.70;;;;;;5020520;28;20137;-70
2023/09/28 08:26:30;;;;;;;0.10;0.10;;;18.30;79.00;;;;;;5022486;28;20108;-67
2023/09/28 08:28:58;;;;;;;0.45;0.45;;;18.40;79.40;;;;;;5028281;28;20099;-69
2023/09/28 08:31:24;;;;;;;9.02;1.00;;;18.40;79.00;;;;;;5020524;28;20049;-70
2023/09/28 08:33:50;;;;;;;0.00;0.00;;;18.40;79.20;;;;;;5021505;28;20048;-70
2023/09/28 08:36:16;;;;;;;0.75;0.75;;;18.40;79.30;;;;;;5025613;28;20141;-70
2023/09/28 08:38:41;;;;;;;10.07;1.15;;;18.50;79.30;;;;;;5024098;28;20144;-70
2023/09/28 08:41:09;;;;;;;0.05;0.05;;;18.50;79.10;;;;;;5026801;28;21520;-70
2023/09/28 08:43:43;;;;;;;0.60;0.30;;;18.50;79.20;;;;;;5025032;28;20137;-70
2023/09/28 08:46:14;;;;;;;0.00;0.00;;;18.50;79.30;;;;;;5029045;28;20160;-70
2023/09/28 08:48:51;;;;;;;0.00;0.00;;;18.50;79.60;;;;;;5019998;28;20699;-69
2023/09/28 08:51:17;;;;;;;0.00;0.00;;;18.50;79.80;;;;;;5031912;28;20051;-70
2023/09/28 08:53:43;;;;;;;1.45;1.35;;;18.50;79.70;;;;;;5031698;28;20120;-70
2023/09/28 08:56:10;;;;;;;0.20;0.20;;;18.50;80.00;;;;;;5029389;28;20041;-70
2023/09/28 08:58:43;;;;;;;0.00;0.00;;;18.60;79.90;;;;;;5029651;28;20053;-70
2023/09/28 09:01:10;;;;;;;0.10;0.10;;;18.60;80.10;;;;;;5027181;28;20120;-70
2023/09/28 09:03:38;;;;;;;0.00;0.00;;;18.60;79.80;;;;;;5026177;28;20040;-70
2023/09/28 09:06:08;;;;;;;0.00;0.00;;;18.60;79.80;;;;;;5026612;28;20080;-69
2023/09/28 09:08:37;;;;;;;0.47;0.47;;;18.60;79.20;;;;;;5027140;28;20048;-71
2023/09/28 09:11:04;;;;;;;0.00;0.00;;;18.60;79.00;;;;;;5026880;28;20980;-71
2023/09/28 09:13:29;;;;;;;0.00;0.00;;;18.60;79.10;;;;;;5028464;28;20037;-70
2023/09/28 09:15:56;;;;;;;0.00;0.00;;;18.70;79.20;;;;;;5031795;28;20043;-71
2023/09/28 09:18:24;;;;;;;0.00;0.00;;;18.70;79.20;;;;;;5029744;28;20125;-70
2023/09/28 09:20:56;;;;;;;1.27;0.55;;;18.70;79.30;;;;;;5027017;28;20034;-70
2023/09/28 09:23:22;;;;;;;6.93;0.47;;;18.70;79.20;;;;;;5025482;28;20061;-71
2023/09/28 09:25:48;;;;;;;0.00;0.00;;;18.60;79.40;;;;;;5029153;28;20045;-71
2023/09/28 09:28:28;;;;;;;0.00;0.00;;;18.70;79.30;;;;;;5028714;28;20038;-71
2023/09/28 09:30:55;;;;;;;0.30;0.30;;;18.80;79.10;;;;;;5028595;28;20122;-71
2023/09/28 09:33:21;;;;;;;0.10;0.10;;;18.80;79.00;;;;;;5028994;28;20041;-70
2023/09/28 09:35:47;;;;;;;0.00;0.00;;;18.80;78.10;;;;;;5045608;28;20052;-71
2023/09/28 09:38:12;;;;;;;0.00;0.00;;;18.90;78.10;;;;;;5023342;28;20375;-70
2023/09/28 09:40:38;;;;;;;0.00;0.00;;;18.90;78.40;;;;;;5023283;28;20046;-70
2023/09/28 09:43:08;;;;;;;0.00;0.00;;;18.90;78.10;;;;;;5023206;28;20379;-70
2023/09/28 09:45:38;;;;;;;0.75;0.75;;;18.80;77.60;;;;;;5029154;28;20048;-69
2023/09/28 09:48:06;;;;;;;6.13;1.98;;;18.90;78.40;;;;;;5028362;28;20054;-70
2023/09/28 09:50:35;;;;;;;0.55;0.55;;;19.00;78.70;;;;;;5021095;28;20502;-70
2023/09/28 09:53:04;;;;;;;0.00;0.00;;;18.90;76.70;;;;;;5031786;28;20045;-70
2023/09/28 09:55:31;;;;;;;0.00;0.00;;;18.80;77.10;;;;;;5030315;28;20046;-70
2023/09/28 09:58:02;;;;;;;0.00;0.00;;;18.90;77.60;;;;;;5029073;28;20676;-71
2023/09/28 10:00:31;;;;;;;0.50;0.50;;;18.90;76.80;;;;;;5031954;28;20124;-70
2023/09/28 10:03:00;;;;;;;0.00;0.00;;;18.80;77.30;;;;;;5046307;28;20167;-70
2023/09/28 10:05:27;;;;;;;0.00;0.00;;;18.80;77.60;;;;;;5032883;28;20124;-70
2023/09/28 10:07:55;;;;;;;0.00;0.00;;;18.80;77.70;;;;;;5025557;28;20045;-71
2023/09/28 10:10:23;;;;;;;0.70;0.70;;;18.80;77.10;;;;;;5030957;28;20033;-71
2023/09/28 10:12:50;;;;;;;0.03;0.03;;;18.80;77.10;;;;;;5027355;28;20583;-71
2023/09/28 10:15:16;;;;;;;0.40;0.40;;;18.80;77.70;;;;;;5026172;28;20034;-71
2023/09/28 10:17:44;;;;;;;0.00;0.00;;;18.80;77.60;;;;;;5023561;28;20124;-71
2023/09/28 10:20:13;;;;;;;0.00;0.00;;;18.80;77.60;;;;;;5026296;28;20041;-71
2023/09/28 10:22:44;;;;;;;0.00;0.00;;;18.90;77.80;;;;;;5027383;28;20065;-72
2023/09/28 10:25:15;;;;;;;0.03;0.03;;;18.90;77.30;;;;;;5027007;28;21270;-72
2023/09/28 10:27:44;;;;;;;0.52;0.52;;;19.00;77.50;;;;;;5042041;28;20461;-72
2023/09/28 10:30:21;;;;;;;0.00;0.00;;;19.00;76.50;;;;;;5028179;28;20046;-72
2023/09/28 10:32:50;;;;;;;0.03;0.03;;;19.00;76.70;;;;;;5026519;28;20042;-72
2023/09/28 10:35:29;;;;;;;0.00;0.00;;;19.00;76.90;;;;;;5027969;28;20045;-70
2023/09/28 10:38:17;;;;;;;0.00;0.00;;;19.00;76.50;;;;;;5046043;28;20387;-73
2023/09/28 10:40:47;;;;;;;0.08;0.08;;;19.10;76.60;;;;;;5034070;28;20073;-73
2023/09/28 10:43:30;;;;;;;0.00;0.00;;;19.10;76.70;;;;;;5049490;28;20501;-73
2023/09/28 10:46:03;;;;;;;0.00;0.00;;;19.20;76.40;;;;;;5034607;28;20042;-73
2023/09/28 10:48:32;;;;;;;0.20;0.20;;;19.10;75.90;;;;;;5028962;28;20510;-73
2023/09/28 10:50:58;;;;;;;0.00;0.00;;;19.10;76.30;;;;;;5029419;28;20050;-73
2023/09/28 10:53:24;;;;;;;0.10;0.00;;;19.10;76.50;;;;;;5030815;28;20048;-73
2023/09/28 10:55:49;;;;;;;0.20;0.20;;;19.20;76.40;;;;;;5040969;28;20498;-73
2023/09/28 10:58:16;;;;;;;0.10;0.10;;;19.30;75.70;;;;;;5032143;28;20087;-72
2023/09/28 11:00:42;;;;;;;0.00;0.00;;;19.30;76.00;;;;;;5032526;28;20041;-72
2023/09/28 11:03:07;;;;;;;0.00;0.00;;;19.30;75.50;;;;;;5033103;28;20045;-72
2023/09/28 11:05:34;;;;;;;0.20;0.20;;;19.40;75.00;;;;;;5029105;28;21141;-72
2023/09/28 11:08:03;;;;;;;0.20;0.15;;;19.40;75.10;;;;;;5029868;28;20080;-72
2023/09/28 11:10:29;;;;;;;0.00;0.00;;;19.50;74.40;;;;;;5031751;28;20053;-73
2023/09/28 11:12:55;;;;;;;23.38;1.48;;;19.50;73.40;;;;;;5029358;28;20037;-72
2023/09/28 11:15:22;;;;;;;0.10;0.10;;;19.50;73.60;;;;;;5012673;28;20045;-71
2023/09/28 11:17:50;;;;;;;0.00;0.00;;;19.50;73.10;;;;;;5031503;28;20072;-72
2023/09/28 11:20:16;;;;;;;0.40;0.32;;;19.50;74.00;;;;;;5028998;28;20041;-72
2023/09/28 11:22:41;;;;;;;0.52;0.52;;;19.40;75.10;;;;;;5028024;28;21434;-72
2023/09/28 11:25:08;;;;;;;0.73;0.73;;;19.40;75.70;;;;;;5028900;28;20041;-72
2023/09/28 11:27:33;;;;;;;0.38;0.38;;;19.40;77.00;;;;;;5029073;28;20501;-72
2023/09/28 11:29:59;;;;;;;0.40;0.40;;;19.30;77.90;;;;;;5029601;28;20092;-73
2023/09/28 11:32:25;;;;;;;0.75;0.70;;;19.30;78.80;;;;;;5044673;28;20049;-72
2023/09/28 11:34:54;;;;;;;0.47;0.47;;;19.40;78.30;;;;;;5027144;28;20471;-72
2023/09/28 11:37:22;;;;;;;0.00;0.00;;;19.30;78.60;;;;;;5028462;28;20037;-71
2023/09/28 11:39:48;;;;;;;0.10;0.10;;;19.40;78.80;;;;;;5029116;28;20037;-71
2023/09/28 11:42:14;;;;;;;2.95;2.53;;;19.30;78.60;;;;;;5027513;28;20091;-71
2023/09/28 11:44:42;;;;;;;0.70;0.70;;;19.30;79.00;;;;;;5028364;28;20456;-72
2023/09/28 11:47:08;;;;;;;0.00;0.00;;;19.20;79.80;;;;;;5028596;28;20087;-71
2023/09/28 11:49:37;;;;;;;0.38;0.38;;;19.30;79.60;;;;;;5028214;28;20456;-73
2023/09/28 11:52:03;;;;;;;0.10;0.10;;;19.20;77.80;;;;;;5028214;28;20453;-74
2023/09/28 11:54:29;;;;;;;0.00;0.00;;;19.20;77.80;;;;;;5027265;28;20069;-74
2023/09/28 11:56:57;;;;;;;0.20;0.20;;;19.30;77.90;;;;;;5031829;28;20432;-74
2023/09/28 11:59:23;;;;;;;0.20;0.15;;;19.30;78.30;;;;;;5047572;28;20344;-74
2023/09/28 12:01:51;;;;;;;0.00;0.00;;;19.30;76.30;;;;;;5033347;28;20107;-74
2023/09/28 12:04:18;;;;;;;0.40;0.40;;;19.30;75.30;;;;;;5033262;28;20053;-74
2023/09/28 12:06:45;;;;;;;0.00;0.00;;;19.40;75.50;;;;;;5032155;28;20052;-74
2023/09/28 12:09:13;;;;;;;8.30;1.45;;;19.40;74.10;;;;;;5032569;28;20448;-73
2023/09/28 12:11:39;;;;;;;0.00;0.00;;;19.50;73.80;;;;;;5031438;28;20100;-71
2023/09/28 12:14:05;;;;;;;0.00;0.00;;;19.40;73.10;;;;;;5048866;28;20546;-73
2023/09/28 12:16:31;;;;;;;0.03;0.03;;;19.50;73.20;;;;;;5031404;28;20046;-74
2023/09/28 12:18:57;;;;;;;0.40;0.40;;;19.50;73.60;;;;;;5032929;28;20033;-72
2023/09/28 12:21:22;;;;;;;0.10;0.10;;;19.50;72.40;;;;;;5030949;28;20127;-72
2023/09/28 12:23:48;;;;;;;0.75;0.75;;;19.50;73.60;;;;;;5032673;28;20506;-71
2023/09/28 12:26:15;;;;;;;0.00;0.00;;;19.60;73.70;;;;;;5032172;28;20038;-72
2023/09/28 12:28:41;;;;;;;0.00;0.00;;;19.60;73.70;;;;;;5031556;28;20506;-72
2023/09/28 12:31:08;;;;;;;0.45;0.45;;;19.50;72.10;;;;;;5029567;28;20038;-72
2023/09/28 12:33:36;;;;;;;0.20;0.20;;;19.60;73.40;;;;;;5043411;28;20052;-72
2023/09/28 12:36:02;;;;;;;0.00;0.00;;;19.50;74.10;;;;;;5028472;28;20041;-71
2023/09/28 12:38:27;;;;;;;1.35;1.05;;;19.60;73.40;;;;;;5028391;28;20086;-72
2023/09/28 12:40:53;;;;;;;0.00;0.00;;;19.60;73.70;;;;;;5026574;28;20041;-72
2023/09/28 12:43:20;;;;;;;0.10;0.10;;;19.60;74.20;;;;;;5022985;28;20041;-72
2023/09/28 12:45:46;;;;;;;0.00;0.00;;;19.50;73.20;;;;;;5026695;28;20045;-71
2023/09/28 12:48:17;;;;;;;0.05;0.05;;;19.60;73.60;;;;;;5028993;28;20056;-71
2023/09/28 12:50:46;;;;;;;0.30;0.30;;;19.60;73.60;;;;;;5044320;28;20131;-72